| time (UTC) | temp F | wind direction | speed knots | gust knots | rain 1hr in | rain 24hr in | rain mn in | humidity % | barometer mb |
| 20260506223315 | 57 | 0.0 | 0.0 | 0.00 | 0.00 | 0.00 | 79 | ||
| 20260506221814 | 57 | 0.0 | 0.0 | 0.00 | 0.00 | 0.00 | 78 | ||
| 20260506220313 | 57 | 0.0 | 0.0 | 0.00 | 0.00 | 0.00 | 79 | ||
| 20260506214812 | 58 | 0.0 | 0.0 | 0.00 | 0.00 | 0.00 | 79 | ||
| 20260506213312 | 57 | 0.0 | 0.0 | 0.00 | 0.00 | 0.00 | 79 | ||
| 20260506211811 | 58 | 0.0 | 0.0 | 0.00 | 0.00 | 0.00 | 79 | ||
| 20260506210310 | 58 | 0.0 | 0.0 | 0.00 | 0.00 | 0.00 | 78 | ||
| 20260506204810 | 58 | 0.0 | 0.0 | 0.00 | 0.00 | 0.00 | 79 | ||
| 20260506203309 | 58 | 0.0 | 0.0 | 0.00 | 0.00 | 0.00 | 79 | ||
| 20260506201808 | 59 | 0.0 | 0.0 | 0.00 | 0.00 | 0.00 | 78 | ||
| 20260506200308 | 60 | 0.0 | 0.0 | 0.00 | 0.00 | 0.00 | 78 | ||
| 20260506194807 | 59 | 0.0 | 0.0 | 0.00 | 0.00 | 0.00 | 78 | ||
| 20260506193306 | 59 | 0.0 | 0.0 | 0.00 | 0.00 | 0.00 | 79 | ||
| 20260506191806 | 59 | 0.0 | 0.0 | 0.00 | 0.00 | 0.00 | 79 | ||
| 20260506190305 | 59 | 0.0 | 0.0 | 0.00 | 0.00 | 0.00 | 78 | ||
| 20260506184804 | 60 | 0.0 | 0.0 | 0.00 | 0.00 | 0.00 | 77 | ||
| 20260506183304 | 60 | 0.0 | 0.0 | 0.00 | 0.00 | 0.00 | 77 | ||
| 20260506181803 | 59 | 0.0 | 0.0 | 0.00 | 0.00 | 0.00 | 78 | ||
| 20260506180302 | 60 | 0.0 | 0.0 | 0.00 | 0.00 | 0.00 | 76 | ||
| 20260506174801 | 60 | 0.0 | 0.0 | 0.00 | 0.00 | 0.00 | 76 | ||
| 20260506173300 | 60 | 0.0 | 0.0 | 0.00 | 0.00 | 0.00 | 78 | ||
| 20260506171800 | 59 | 0.0 | 0.0 | 0.00 | 0.00 | 0.00 | 78 | ||
| 20260506170259 | 59 | 0.0 | 0.0 | 0.00 | 0.00 | 0.00 | 78 | ||
| 20260506164758 | 60 | 0.0 | 0.0 | 0.00 | 0.00 | 0.00 | 77 | ||
| 20260506163258 | 60 | 0.0 | 0.0 | 0.00 | 0.00 | 0.00 | 79 | ||
| 20260506161757 | 60 | 0.0 | 0.0 | 0.00 | 0.00 | 0.00 | 77 | ||
| 20260506160256 | 60 | 0.0 | 0.0 | 0.00 | 0.00 | 0.00 | 76 | ||
| 20260506154755 | 59 | 0.0 | 0.0 | 0.00 | 0.00 | 0.00 | 77 | ||
| 20260506153254 | 60 | 0.0 | 0.0 | 0.00 | 0.00 | 0.00 | 76 | ||
| 20260506151754 | 60 | 0.0 | 0.0 | 0.00 | 0.00 | 0.00 | 76 | ||
| 20260506150259 | 62 | 0.0 | 0.0 | 0.00 | 0.00 | 0.00 | 77 | ||
| 20260506144752 | 64 | 0.0 | 0.0 | 0.00 | 0.00 | 0.00 | 71 | ||
| 20260506143251 | 66 | 0.0 | 0.0 | 0.00 | 0.00 | 0.00 | 61 | ||
| 20260506141751 | 67 | 0.0 | 0.0 | 0.00 | 0.00 | 0.00 | 55 | ||
| 20260506140250 | 68 | 0.0 | 0.0 | 0.00 | 0.00 | 0.00 | 55 | ||
| 20260506134749 | 69 | 0.0 | 0.0 | 0.00 | 0.00 | 0.00 | 57 | ||
| 20260506133248 | 70 | 0.0 | 0.0 | 0.00 | 0.00 | 0.00 | 54 | ||
| 20260506131748 | 71 | 0.0 | 0.0 | 0.00 | 0.00 | 0.00 | 54 | ||
| 20260506130247 | 71 | 0.0 | 0.0 | 0.00 | 0.00 | 0.00 | 54 | ||
| 20260506124746 | 71 | 0.0 | 0.0 | 0.00 | 0.00 | 0.00 | 55 | ||
| 20260506123245 | 70 | 0.0 | 0.0 | 0.00 | 0.00 | 0.00 | 55 | ||
| 20260506121745 | 70 | 0.0 | 0.0 | 0.00 | 0.00 | 0.00 | 55 | ||
| 20260506120244 | 70 | 0.0 | 0.0 | 0.00 | 0.00 | 0.00 | 55 | ||
| 20260506114743 | 71 | 0.0 | 0.0 | 0.00 | 0.00 | 0.00 | 55 | ||
| 20260506113243 | 70 | 0.0 | 0.0 | 0.00 | 0.00 | 0.00 | 53 | ||
| 20260506111742 | 70 | 0.0 | 0.0 | 0.00 | 0.00 | 0.00 | 55 | ||
| 20260506110241 | 72 | 0.0 | 0.0 | 0.00 | 0.00 | 0.00 | 54 | ||
| 20260506104740 | 70 | 0.0 | 0.0 | 0.00 | 0.00 | 0.00 | 55 | ||
| 20260506103239 | 69 | 0.0 | 0.0 | 0.00 | 0.00 | 0.00 | 55 | ||
| 20260506101739 | 69 | 0.0 | 0.0 | 0.00 | 0.00 | 0.00 | 55 | ||
| 20260506100238 | 70 | 0.0 | 0.0 | 0.00 | 0.00 | 0.00 | 53 | ||
| 20260506094737 | 68 | 0.0 | 0.0 | 0.00 | 0.00 | 0.00 | 56 | ||
| 20260506093237 | 68 | 0.0 | 0.0 | 0.00 | 0.00 | 0.00 | 59 | ||
| 20260506091736 | 67 | 0.0 | 0.0 | 0.00 | 0.00 | 0.00 | 60 | ||
| 20260506090235 | 66 | 0.0 | 0.0 | 0.00 | 0.00 | 0.00 | 61 | ||
| 20260506084735 | 66 | 0.0 | 0.0 | 0.00 | 0.00 | 0.00 | 61 | ||
| 20260506083234 | 65 | 0.0 | 0.0 | 0.00 | 0.00 | 0.00 | 62 | ||
| 20260506081733 | 65 | 0.0 | 0.0 | 0.00 | 0.00 | 0.00 | 62 | ||
| 20260506080233 | 66 | 0.0 | 0.0 | 0.00 | 0.00 | 0.00 | 62 | ||
| 20260506073231 | 65 | 0.0 | 0.0 | 0.00 | 0.00 | 0.00 | 65 | ||
| 20260506071730 | 66 | 0.0 | 0.0 | 0.00 | 0.00 | 0.00 | 66 | ||
| 20260506070230 | 65 | 0.0 | 0.0 | 0.00 | 0.00 | 0.00 | 68 | ||
| 20260506061727 | 61 | 0.0 | 0.0 | 0.00 | 0.00 | 0.00 | 72 | ||
| 20260506060227 | 59 | 0.0 | 0.0 | 0.00 | 0.00 | 0.00 | 74 | ||
| 20260506050223 | 56 | 0.0 | 0.0 | 0.00 | 0.00 | 0.00 | 75 | ||
| 20260506044723 | 56 | 0.0 | 0.0 | 0.00 | 0.00 | 0.00 | 75 | ||
| 20260506043222 | 56 | 0.0 | 0.0 | 0.00 | 0.00 | 0.00 | 76 | ||
| 20260506041721 | 55 | 0.0 | 0.0 | 0.00 | 0.00 | 0.00 | 76 | ||
| 20260506040220 | 54 | 0.0 | 0.0 | 0.00 | 0.00 | 0.00 | 77 | ||
| 20260506034719 | 55 | 0.0 | 0.0 | 0.00 | 0.00 | 0.00 | 76 | ||
| 20260506033218 | 55 | 0.0 | 0.0 | 0.00 | 0.00 | 0.00 | 75 | ||
| 20260506031718 | 56 | 0.0 | 0.0 | 0.00 | 0.00 | 0.00 | 75 | ||
| 20260506030217 | 56 | 0.0 | 0.0 | 0.00 | 0.00 | 0.00 | 75 | ||
| 20260506024716 | 56 | 0.0 | 0.0 | 0.00 | 0.00 | 0.00 | 75 | ||
| 20260506023215 | 56 | 0.0 | 0.0 | 0.00 | 0.00 | 0.00 | 77 | ||
| 20260506021715 | 56 | 0.0 | 0.0 | 0.00 | 0.00 | 0.00 | 77 | ||
| 20260506020214 | 57 | 0.0 | 0.0 | 0.00 | 0.00 | 0.00 | 76 | ||
| 20260506014714 | 57 | 0.0 | 0.0 | 0.00 | 0.00 | 0.00 | 76 | ||
| 20260506013213 | 57 | 0.0 | 0.0 | 0.00 | 0.00 | 0.00 | 77 | ||
| 20260506010211 | 57 | 0.0 | 0.0 | 0.00 | 0.00 | 0.00 | 78 | ||
| 20260506004710 | 58 | 0.0 | 0.0 | 0.00 | 0.00 | 0.00 | 76 | ||
| 20260506003210 | 59 | 0.0 | 0.0 | 0.00 | 0.00 | 0.00 | 76 | ||
| 20260506001709 | 59 | 0.0 | 0.0 | 0.00 | 0.00 | 0.00 | 76 | ||
| 20260506000208 | 59 | 0.0 | 0.0 | 0.00 | 0.00 | 0.00 | 77 | ||
| 20260505234708 | 59 | 0.0 | 0.0 | 0.00 | 0.00 | 0.00 | 77 | ||
| 20260505233245 | 59 | 0.0 | 0.0 | 0.00 | 0.00 | 0.00 | 78 | ||
| 20260505231706 | 59 | 0.0 | 0.0 | 0.00 | 0.00 | 0.00 | 78 | ||
| 20260505224705 | 60 | 0.0 | 0.0 | 0.00 | 0.00 | 0.00 | 77 |